createdAt,value
2023-04-20T00:02:15.566Z,101391.72
2023-04-20T00:04:42.586Z,101375.91
2023-04-20T00:07:09.690Z,101372.44
2023-04-20T00:09:36.331Z,101374.78
2023-04-20T00:12:02.895Z,101372.06
2023-04-20T00:14:29.505Z,101370.00
2023-04-20T00:16:56.115Z,101371.25
2023-04-20T00:19:23.171Z,101361.69
2023-04-20T00:21:49.971Z,101361.28
2023-04-20T00:24:16.613Z,101364.34
2023-04-20T00:26:43.333Z,101362.53
2023-04-20T00:29:10.046Z,101356.50
2023-04-20T00:31:37.050Z,101356.50
2023-04-20T00:34:03.653Z,101337.84
2023-04-20T00:36:30.207Z,101344.34
2023-04-20T00:38:59.100Z,101347.56
2023-04-20T00:41:28.478Z,101338.41
2023-04-20T00:43:55.072Z,101334.88
2023-04-20T00:46:21.841Z,101333.94
2023-04-20T00:48:51.777Z,101338.03
2023-04-20T00:51:22.809Z,101335.94
2023-04-20T00:53:49.464Z,101339.34
2023-04-20T00:56:16.591Z,101327.06
2023-04-20T00:58:46.131Z,101330.09
2023-04-20T01:01:17.525Z,101325.50
2023-04-20T01:03:46.243Z,101313.78
2023-04-20T01:06:14.231Z,101309.63
2023-04-20T01:08:51.338Z,101305.81
2023-04-20T01:11:18.306Z,101299.09
2023-04-20T01:13:45.353Z,101308.31
2023-04-20T01:16:12.628Z,101305.31
2023-04-20T01:18:48.295Z,101302.75
2023-04-20T01:21:17.402Z,101297.00
2023-04-20T01:23:44.874Z,101300.69
2023-04-20T01:26:13.339Z,101292.59
2023-04-20T01:28:40.174Z,101285.13
2023-04-20T01:31:08.615Z,101285.13
2023-04-20T01:33:35.544Z,101280.22
2023-04-20T01:36:03.156Z,101279.06
2023-04-20T01:38:32.860Z,101289.75
2023-04-20T01:41:06.752Z,101273.72
2023-04-20T01:43:35.868Z,101275.47
2023-04-20T01:46:02.748Z,101277.84
2023-04-20T01:48:29.467Z,101270.38
2023-04-20T01:50:56.132Z,101272.25
2023-04-20T01:53:23.228Z,101268.38
2023-04-20T01:55:49.955Z,101267.59
2023-04-20T01:58:16.836Z,101262.00
2023-04-20T02:00:44.579Z,101266.81
2023-04-20T02:03:11.673Z,101253.88
2023-04-20T02:05:38.301Z,101254.94
2023-04-20T02:08:05.618Z,101257.31
2023-04-20T02:10:32.395Z,101257.31
2023-04-20T02:12:59.136Z,101264.22
2023-04-20T02:15:25.870Z,101257.03
2023-04-20T02:17:52.828Z,101248.72
2023-04-20T02:20:20.325Z,101250.59
2023-04-20T02:22:47.195Z,101248.19
2023-04-20T02:25:14.901Z,101252.97
2023-04-20T02:27:41.852Z,101251.81
2023-04-20T02:30:08.996Z,101242.91
2023-04-20T02:32:35.643Z,101241.91
2023-04-20T02:35:04.333Z,101238.16
2023-04-20T02:37:31.266Z,101240.34
2023-04-20T02:39:57.933Z,101242.81
2023-04-20T02:42:26.725Z,101243.84
2023-04-20T02:44:55.168Z,101239.16
2023-04-20T02:47:21.727Z,101238.28
2023-04-20T02:49:49.455Z,101235.78
2023-04-20T02:52:16.085Z,101231.88
2023-04-20T02:54:43.329Z,101229.13
2023-04-20T02:57:12.158Z,101231.22
2023-04-20T02:59:39.210Z,101227.56
2023-04-20T03:02:19.628Z,101223.03
2023-04-20T03:04:46.465Z,101215.31
2023-04-20T03:07:18.488Z,101213.06
2023-04-20T03:09:46.550Z,101213.22
2023-04-20T03:12:13.269Z,101207.50
2023-04-20T03:15:00.180Z,101210.22
2023-04-20T03:17:45.485Z,101198.41
2023-04-20T03:20:13.307Z,101210.22
2023-04-20T03:22:39.881Z,101217.41
2023-04-20T03:25:08.744Z,101212.75
2023-04-20T03:27:51.764Z,101203.75
2023-04-20T03:30:19.027Z,101202.34
2023-04-20T03:32:50.232Z,101201.94
2023-04-20T03:35:17.784Z,101192.88
2023-04-20T03:37:44.642Z,101198.28
2023-04-20T03:40:13.761Z,101193.44
2023-04-20T03:42:41.293Z,101197.31
2023-04-20T03:45:08.364Z,101198.91
2023-04-20T03:47:35.087Z,101197.28
2023-04-20T03:50:01.696Z,101204.47
2023-04-20T03:52:28.557Z,101199.63
2023-04-20T03:54:55.645Z,101195.78
2023-04-20T03:57:22.175Z,101197.16
2023-04-20T03:59:48.909Z,101204.03
2023-04-20T04:02:22.781Z,101201.06
2023-04-20T04:04:50.939Z,101209.84
2023-04-20T04:07:17.588Z,101212.94
2023-04-20T04:09:44.289Z,101220.19
2023-04-20T04:12:12.350Z,101212.50
2023-04-20T04:14:39.570Z,101218.88
2023-04-20T04:17:08.127Z,101215.00
2023-04-20T04:19:37.359Z,101203.63
2023-04-20T04:22:04.177Z,101212.34
2023-04-20T04:24:37.769Z,101219.31
2023-04-20T04:27:08.677Z,101214.78
2023-04-20T04:29:41.863Z,101219.03
2023-04-20T04:32:13.952Z,101211.09
2023-04-20T04:34:44.209Z,101208.34
2023-04-20T04:37:11.871Z,101210.16
2023-04-20T04:39:42.911Z,101217.00
2023-04-20T04:42:17.509Z,101216.81
2023-04-20T04:44:44.890Z,101215.41
2023-04-20T04:47:17.943Z,101221.94
2023-04-20T04:49:45.520Z,101222.59
2023-04-20T04:52:13.265Z,101230.16
2023-04-20T04:54:39.981Z,101219.06
2023-04-20T04:57:06.805Z,101220.03
2023-04-20T04:59:33.267Z,101223.94
2023-04-20T05:01:59.851Z,101213.16
2023-04-20T05:04:26.658Z,101219.50
2023-04-20T05:06:53.292Z,101218.06
2023-04-20T05:09:20.169Z,101220.41
2023-04-20T05:11:46.951Z,101222.50
2023-04-20T05:14:13.583Z,101212.19
2023-04-20T05:16:40.232Z,101211.59
2023-04-20T05:19:06.904Z,101215.50
2023-04-20T05:21:33.501Z,101221.59
2023-04-20T05:24:00.266Z,101215.50
2023-04-20T05:26:26.822Z,101218.06
2023-04-20T05:28:53.353Z,101216.47
2023-04-20T05:31:20.253Z,101211.69
2023-04-20T05:33:46.926Z,101209.94
2023-04-20T05:36:13.523Z,101216.44
2023-04-20T05:38:40.156Z,101216.34
2023-04-20T05:41:06.927Z,101217.91
2023-04-20T05:43:33.508Z,101221.94
2023-04-20T05:46:00.259Z,101223.19
2023-04-20T05:48:30.306Z,101233.84
2023-04-20T05:50:57.143Z,101226.44
2023-04-20T05:53:23.866Z,101227.06
2023-04-20T05:55:50.470Z,101227.34
2023-04-20T05:58:17.435Z,101232.22
2023-04-20T06:00:44.469Z,101225.41
2023-04-20T06:03:11.303Z,101226.16
2023-04-20T06:05:38.278Z,101225.00
2023-04-20T06:08:04.915Z,101226.50
2023-04-20T06:10:34.141Z,101235.81
2023-04-20T06:13:01.098Z,101231.00
2023-04-20T06:15:27.945Z,101231.91
2023-04-20T06:17:54.627Z,101237.50
2023-04-20T06:20:21.451Z,101238.75
2023-04-20T06:22:48.382Z,101239.56
2023-04-20T06:25:15.766Z,101235.81
2023-04-20T06:27:42.770Z,101232.81
2023-04-20T06:30:09.943Z,101236.50
2023-04-20T06:32:37.784Z,101235.91
2023-04-20T06:35:06.139Z,101233.50
2023-04-20T06:37:32.869Z,101232.03
2023-04-20T06:39:59.506Z,101231.03
2023-04-20T06:42:26.203Z,101234.66
2023-04-20T06:44:52.784Z,101237.88
2023-04-20T06:47:19.378Z,101231.81
2023-04-20T06:49:46.058Z,101235.75
2023-04-20T06:52:12.657Z,101238.28
2023-04-20T06:54:39.218Z,101235.22
2023-04-20T06:57:06.000Z,101243.84
2023-04-20T06:59:32.550Z,101235.16
2023-04-20T07:01:59.174Z,101229.13
2023-04-20T07:04:26.130Z,101230.09
2023-04-20T07:06:54.135Z,101234.06
2023-04-20T07:09:22.893Z,101232.72
2023-04-20T07:11:49.887Z,101227.91
2023-04-20T07:14:16.497Z,101225.22
2023-04-20T07:16:43.102Z,101224.06
2023-04-20T07:19:09.936Z,101223.66
2023-04-20T07:21:36.694Z,101218.78
2023-04-20T07:24:03.613Z,101225.44
2023-04-20T07:26:30.158Z,101222.28
2023-04-20T07:28:56.686Z,101219.31
2023-04-20T07:31:23.304Z,101221.47
2023-04-20T07:33:49.839Z,101216.28
2023-04-20T07:36:16.497Z,101222.53
2023-04-20T07:38:42.987Z,101213.72
2023-04-20T07:41:12.883Z,101209.69
2023-04-20T07:43:39.362Z,101216.25
2023-04-20T07:46:06.069Z,101219.22
2023-04-20T07:48:34.300Z,101210.63
2023-04-20T07:51:01.225Z,101215.56
2023-04-20T07:53:29.660Z,101209.94
2023-04-20T07:58:22.869Z,101210.97
2023-04-20T08:00:49.481Z,101203.97
2023-04-20T08:03:16.303Z,101209.97
2023-04-20T08:05:43.156Z,101224.16
2023-04-20T08:08:09.761Z,101211.97
2023-04-20T08:10:36.711Z,101216.63
2023-04-20T08:13:03.518Z,101221.09
2023-04-20T08:15:31.438Z,101220.09
2023-04-20T08:17:58.369Z,101220.97
2023-04-20T08:20:25.218Z,101221.53
2023-04-20T08:22:52.800Z,101218.25
2023-04-20T08:25:19.472Z,101219.38
2023-04-20T08:27:46.077Z,101207.59
2023-04-20T08:30:12.933Z,101213.44
2023-04-20T08:32:40.986Z,101218.81
2023-04-20T08:35:09.562Z,101216.38
2023-04-20T08:37:39.623Z,101211.91
2023-04-20T08:40:06.886Z,101214.59
2023-04-20T08:42:33.472Z,101217.91
2023-04-20T08:45:00.063Z,101206.00
2023-04-20T08:47:28.040Z,101215.16
2023-04-20T08:49:55.703Z,101216.75
2023-04-20T08:52:22.246Z,101213.13
2023-04-20T08:54:56.019Z,101211.91
2023-04-20T08:57:25.039Z,101202.69
2023-04-20T08:59:51.893Z,101219.34
2023-04-20T09:02:18.789Z,101222.75
2023-04-20T09:04:49.131Z,101217.66
2023-04-20T09:07:21.028Z,101217.50
2023-04-20T09:09:59.336Z,101214.16
2023-04-20T09:12:26.465Z,101208.50
2023-04-20T09:14:53.956Z,101217.00
2023-04-20T09:17:34.903Z,101215.50
2023-04-20T09:20:01.604Z,101222.09
2023-04-20T09:22:36.239Z,101215.03
2023-04-20T09:25:19.981Z,101217.63
2023-04-20T09:28:00.611Z,101216.81
2023-04-20T09:30:38.299Z,101219.03
2023-04-20T09:33:07.980Z,101218.72
2023-04-20T09:35:35.173Z,101209.31
2023-04-20T09:38:01.783Z,101213.94
2023-04-20T09:40:28.725Z,101208.25
2023-04-20T09:42:58.943Z,101207.56
2023-04-20T09:45:26.072Z,101209.59
2023-04-20T09:47:53.085Z,101200.16
2023-04-20T09:50:29.034Z,101208.75
2023-04-20T09:52:56.774Z,101205.03
2023-04-20T09:55:24.613Z,101210.53
2023-04-20T09:57:52.445Z,101199.63
2023-04-20T10:00:19.520Z,101211.16
2023-04-20T10:02:48.390Z,101206.34
2023-04-20T10:05:16.799Z,101201.22
2023-04-20T10:07:44.080Z,101201.84
2023-04-20T10:10:14.203Z,101190.91
2023-04-20T10:12:50.908Z,101207.22
2023-04-20T10:15:17.785Z,101203.97
2023-04-20T10:17:44.909Z,101202.28
2023-04-20T10:20:26.116Z,101204.47
2023-04-20T10:22:54.211Z,101203.13
2023-04-20T10:25:24.506Z,101194.47
2023-04-20T10:28:04.577Z,101201.13
2023-04-20T10:30:34.568Z,101198.06
2023-04-20T10:33:09.834Z,101195.63
2023-04-20T10:35:47.263Z,101203.31
2023-04-20T10:38:14.229Z,101195.84
2023-04-20T10:40:40.771Z,101197.81
2023-04-20T10:43:21.663Z,101199.16
2023-04-20T10:45:50.021Z,101199.38
2023-04-20T10:48:18.087Z,101204.69
2023-04-20T10:50:45.541Z,101198.75
2023-04-20T10:53:23.586Z,101201.53
2023-04-20T10:56:00.104Z,101201.53
2023-04-20T10:58:26.955Z,101206.63
2023-04-20T11:00:57.807Z,101199.38
2023-04-20T11:03:24.616Z,101199.25
2023-04-20T11:05:51.889Z,101198.72
2023-04-20T11:08:18.502Z,101195.41
2023-04-20T11:10:45.180Z,101192.72
2023-04-20T11:13:28.990Z,101184.19
2023-04-20T11:15:55.580Z,101188.50
2023-04-20T11:18:22.153Z,101185.97
2023-04-20T11:20:56.149Z,101182.34
2023-04-20T11:23:24.724Z,101179.44
2023-04-20T11:25:56.129Z,101180.66
2023-04-20T11:28:23.091Z,101181.63
2023-04-20T11:30:51.196Z,101170.59
2023-04-20T11:33:31.668Z,101179.09
2023-04-20T11:35:59.528Z,101175.25
2023-04-20T11:38:31.360Z,101173.09
2023-04-20T11:41:00.322Z,101172.06
2023-04-20T11:43:26.949Z,101161.03
2023-04-20T11:45:53.699Z,101160.31
2023-04-20T11:48:20.725Z,101159.97
2023-04-20T11:50:47.376Z,101168.53
2023-04-20T11:53:14.879Z,101161.78
2023-04-20T11:55:41.875Z,101168.00
2023-04-20T11:58:11.600Z,101150.22
2023-04-20T12:00:38.130Z,101161.19
2023-04-20T12:03:05.009Z,101165.66
2023-04-20T12:05:31.737Z,101165.13
2023-04-20T12:07:58.403Z,101169.63
2023-04-20T12:10:25.218Z,101168.00
2023-04-20T12:12:52.206Z,101157.91
2023-04-20T12:15:21.816Z,101162.34
2023-04-20T12:17:48.307Z,101161.88
2023-04-20T12:20:15.064Z,101157.88
2023-04-20T12:22:41.667Z,101154.88
2023-04-20T12:25:08.605Z,101161.31
2023-04-20T12:27:41.684Z,101149.88
2023-04-20T12:30:09.378Z,101149.50
2023-04-20T12:32:36.070Z,101151.66
2023-04-20T12:35:02.762Z,101148.81
2023-04-20T12:37:29.348Z,101140.22
2023-04-20T12:39:55.949Z,101136.69
2023-04-20T12:42:22.552Z,101137.44
2023-04-20T12:44:49.128Z,101135.06
2023-04-20T12:47:15.955Z,101143.06
2023-04-20T12:49:42.559Z,101137.09
2023-04-20T12:52:09.122Z,101139.84
2023-04-20T12:54:35.679Z,101143.09
2023-04-20T12:57:03.382Z,101138.91
2023-04-20T12:59:30.191Z,101132.34
2023-04-20T13:01:56.752Z,101136.06
2023-04-20T13:04:23.901Z,101143.38
2023-04-20T13:06:51.262Z,101127.94
2023-04-20T13:09:17.873Z,101126.72
2023-04-20T13:11:44.767Z,101121.22
2023-04-20T13:14:11.472Z,101126.63
2023-04-20T13:16:38.081Z,101127.34
2023-04-20T13:19:04.634Z,101116.56
2023-04-20T13:21:33.070Z,101122.94
2023-04-20T13:23:59.709Z,101115.56
2023-04-20T13:26:26.586Z,101119.19
2023-04-20T13:28:54.148Z,101120.56
2023-04-20T13:31:20.860Z,101126.69
2023-04-20T13:33:47.530Z,101127.22
2023-04-20T13:36:14.152Z,101115.56
2023-04-20T13:38:40.706Z,101115.19
2023-04-20T13:41:07.344Z,101111.06
2023-04-20T13:43:33.905Z,101108.53
2023-04-20T13:46:00.678Z,101113.56
2023-04-20T13:48:27.200Z,101114.47
2023-04-20T13:50:54.209Z,101103.97
2023-04-20T13:53:21.925Z,101093.28
2023-04-20T13:55:48.680Z,101090.28
2023-04-20T13:58:15.303Z,101087.81
2023-04-20T14:00:41.990Z,101087.81
2023-04-20T14:03:12.075Z,101087.72
2023-04-20T14:05:39.126Z,101098.69
2023-04-20T14:08:06.961Z,101093.56
2023-04-20T14:10:34.039Z,101088.47
2023-04-20T14:13:01.588Z,101087.13
2023-04-20T14:15:28.469Z,101081.50
2023-04-20T14:17:55.190Z,101088.44
2023-04-20T14:20:21.839Z,101083.00
2023-04-20T14:22:48.410Z,101077.56
2023-04-20T14:25:15.038Z,101072.28
2023-04-20T14:27:41.635Z,101072.00
2023-04-20T14:30:08.962Z,101074.41
2023-04-20T14:32:36.050Z,101055.06
2023-04-20T14:35:05.501Z,101064.09
2023-04-20T14:37:32.990Z,101060.00
2023-04-20T14:39:59.556Z,101049.88
2023-04-20T14:42:26.171Z,101040.47
2023-04-20T14:44:52.722Z,101051.91
2023-04-20T14:47:19.347Z,101052.75
2023-04-20T14:49:45.938Z,101049.88
2023-04-20T14:52:12.508Z,101038.09
2023-04-20T14:54:39.061Z,101048.47
2023-04-20T14:57:05.625Z,101056.00
2023-04-20T14:59:33.791Z,101051.34
2023-04-20T15:02:02.894Z,101052.31
2023-04-20T15:04:30.615Z,101053.31
2023-04-20T15:06:57.365Z,101058.16
2023-04-20T15:09:24.479Z,101056.44
2023-04-20T15:11:51.115Z,101045.16
2023-04-20T15:14:17.924Z,101050.47
2023-04-20T15:16:44.699Z,101043.06
2023-04-20T15:19:11.271Z,101051.06
2023-04-20T15:21:37.809Z,101050.75
2023-04-20T15:24:04.622Z,101054.16
2023-04-20T15:26:31.191Z,101055.91
2023-04-20T15:28:57.769Z,101059.94
2023-04-20T15:31:24.479Z,101049.31
2023-04-20T15:33:51.147Z,101060.25
2023-04-20T15:36:19.376Z,101057.03
2023-04-20T15:38:46.501Z,101056.31
2023-04-20T15:41:13.181Z,101050.00
2023-04-20T15:43:39.714Z,101048.19
2023-04-20T15:46:06.616Z,101037.94
2023-04-20T15:48:33.233Z,101046.56
2023-04-20T15:50:59.956Z,101048.50
2023-04-20T15:53:26.707Z,101044.09
2023-04-20T15:55:53.323Z,101041.81
2023-04-20T15:58:20.162Z,101039.19
2023-04-20T16:00:46.925Z,101045.97
2023-04-20T16:03:13.736Z,101039.38
2023-04-20T16:05:40.666Z,101047.94
2023-04-20T16:08:07.364Z,101042.31
2023-04-20T16:10:34.115Z,101033.69
2023-04-20T16:13:00.764Z,101036.09
2023-04-20T16:15:27.446Z,101043.47
2023-04-20T16:17:54.527Z,101048.84
2023-04-20T16:20:21.290Z,101044.34
2023-04-20T16:22:47.923Z,101041.81
2023-04-20T16:25:22.414Z,101048.69
2023-04-20T16:27:51.315Z,101046.84
2023-04-20T16:30:18.544Z,101050.38
2023-04-20T16:32:46.526Z,101045.16
2023-04-20T16:35:13.178Z,101041.94
2023-04-20T16:37:39.887Z,101048.97
2023-04-20T16:40:09.197Z,101039.81
2023-04-20T16:42:46.991Z,101040.16
2023-04-20T16:45:19.661Z,101040.84
2023-04-20T16:47:46.858Z,101037.56
2023-04-20T16:50:19.410Z,101036.88
2023-04-20T16:52:47.307Z,101045.09
2023-04-20T16:55:14.047Z,101037.53
2023-04-20T16:57:41.937Z,101046.34
2023-04-20T17:00:11.837Z,101041.97
2023-04-20T17:02:38.638Z,101042.16
2023-04-20T17:05:06.705Z,101036.09
2023-04-20T17:07:33.710Z,101029.88
2023-04-20T17:10:00.474Z,101043.56
2023-04-20T17:12:27.207Z,101047.03
2023-04-20T17:14:55.325Z,101052.25
2023-04-20T17:17:22.091Z,101048.84
2023-04-20T17:19:48.766Z,101062.47
2023-04-20T17:22:15.733Z,101056.97
2023-04-20T17:24:42.231Z,101063.75
2023-04-20T17:27:08.935Z,101068.81
2023-04-20T17:29:38.281Z,101073.38
2023-04-20T17:32:05.998Z,101074.81
2023-04-20T17:34:33.113Z,101082.47
2023-04-20T17:36:59.726Z,101074.81
2023-04-20T17:39:26.618Z,101084.59
2023-04-20T17:41:53.293Z,101094.16
2023-04-20T17:44:20.485Z,101092.28
2023-04-20T17:46:47.282Z,101078.38
2023-04-20T17:49:13.833Z,101083.97
2023-04-20T17:51:40.571Z,101082.41
2023-04-20T17:54:07.715Z,101079.38
2023-04-20T17:56:34.383Z,101090.06
2023-04-20T17:59:00.961Z,101086.53
2023-04-20T18:01:28.041Z,101094.97
2023-04-20T18:03:54.888Z,101098.84
2023-04-20T18:06:21.605Z,101097.09
2023-04-20T18:08:48.128Z,101086.38
2023-04-20T18:11:14.770Z,101100.53
2023-04-20T18:13:41.415Z,101100.53
2023-04-20T18:16:08.466Z,101101.91
2023-04-20T18:18:35.137Z,101106.13
2023-04-20T18:21:01.697Z,101109.00
2023-04-20T18:23:29.886Z,101099.25
2023-04-20T18:25:56.653Z,101098.69
2023-04-20T18:28:23.393Z,101096.56
2023-04-20T18:30:50.050Z,101108.38
2023-04-20T18:33:16.690Z,101105.03
2023-04-20T18:35:43.793Z,101101.44
2023-04-20T18:38:10.313Z,101099.34
2023-04-20T18:40:37.116Z,101091.69
2023-04-20T18:43:03.757Z,101103.06
2023-04-20T18:45:30.858Z,101099.47
2023-04-20T18:47:58.184Z,101094.44
2023-04-20T18:50:24.870Z,101094.72
2023-04-20T18:52:51.420Z,101097.63
2023-04-20T18:55:18.015Z,101097.09
2023-04-20T18:57:44.568Z,101102.00
2023-04-20T19:00:11.758Z,101097.31
2023-04-20T19:02:38.468Z,101099.97
2023-04-20T19:05:05.464Z,101101.38
2023-04-20T19:07:32.043Z,101093.44
2023-04-20T19:09:58.617Z,101096.13
2023-04-20T19:12:25.506Z,101087.72
2023-04-20T19:14:52.126Z,101087.69
2023-04-20T19:17:18.765Z,101082.81
2023-04-20T19:19:45.993Z,101090.13
2023-04-20T19:22:12.546Z,101084.34
2023-04-20T19:24:39.157Z,101083.09
2023-04-20T19:27:05.760Z,101096.25
2023-04-20T19:29:32.864Z,101090.03
2023-04-20T19:31:59.440Z,101100.06
2023-04-20T19:34:26.193Z,101097.88
2023-04-20T19:36:53.745Z,101098.00
2023-04-20T19:39:20.309Z,101094.47
2023-04-20T19:41:47.400Z,101090.56
2023-04-20T19:44:14.503Z,101089.28
2023-04-20T19:46:41.288Z,101093.06
2023-04-20T19:49:07.934Z,101085.94
2023-04-20T19:51:34.663Z,101081.50
2023-04-20T19:54:03.099Z,101078.78
2023-04-20T19:56:29.835Z,101068.34
2023-04-20T19:58:56.446Z,101074.72
2023-04-20T20:01:23.081Z,101065.56
2023-04-20T20:03:49.841Z,101087.78
2023-04-20T20:06:16.478Z,101089.38
2023-04-20T20:08:43.108Z,101082.41
2023-04-20T20:11:09.777Z,101081.44
2023-04-20T20:13:36.308Z,101076.94
2023-04-20T20:16:03.723Z,101087.53
2023-04-20T20:18:31.057Z,101075.88
2023-04-20T20:20:57.651Z,101092.38
2023-04-20T20:23:24.211Z,101082.13
2023-04-20T20:25:50.973Z,101087.44
2023-04-20T20:28:17.691Z,101078.16
2023-04-20T20:30:45.270Z,101074.25
2023-04-20T20:33:12.869Z,101069.41
2023-04-20T20:35:39.948Z,101069.06
2023-04-20T20:38:07.781Z,101068.59
2023-04-20T20:40:35.498Z,101055.91
2023-04-20T20:43:02.630Z,101045.94
2023-04-20T20:45:30.342Z,101041.53
2023-04-20T20:47:57.216Z,101056.25
2023-04-20T20:50:24.123Z,101053.78
2023-04-20T20:52:50.794Z,101052.31
2023-04-20T20:55:17.624Z,101042.09
2023-04-20T20:57:44.327Z,101045.03
2023-04-20T21:00:11.813Z,101045.66
2023-04-20T21:02:38.935Z,101041.50
2023-04-20T21:05:06.206Z,101045.69
2023-04-20T21:07:32.964Z,101034.03
2023-04-20T21:10:00.764Z,101027.25
2023-04-20T21:12:27.379Z,101016.81
2023-04-20T21:14:54.198Z,101015.19
2023-04-20T21:17:20.889Z,101008.91
2023-04-20T21:19:47.474Z,101012.47
2023-04-20T21:22:14.128Z,101013.72
2023-04-20T21:24:40.799Z,101009.78
2023-04-20T21:27:07.480Z,101013.53
2023-04-20T21:29:34.117Z,101009.06
2023-04-20T21:32:00.673Z,101007.38
2023-04-20T21:34:27.476Z,101009.16
2023-04-20T21:36:54.035Z,101004.91
2023-04-20T21:39:20.867Z,101000.22
2023-04-20T21:41:47.619Z,100997.56
2023-04-20T21:44:14.215Z,100987.19
2023-04-20T21:46:40.815Z,100988.16
2023-04-20T21:49:07.666Z,100983.38
2023-04-20T21:51:34.213Z,100971.19
2023-04-20T21:54:00.759Z,100986.53
2023-04-20T21:56:27.413Z,100982.97
2023-04-20T21:58:54.005Z,100979.34
2023-04-20T22:01:20.844Z,100975.91
2023-04-20T22:03:47.735Z,100975.69
2023-04-20T22:06:15.315Z,100964.50
2023-04-20T22:08:41.940Z,100967.91
2023-04-20T22:11:08.623Z,100969.88
2023-04-20T22:13:36.150Z,100978.41
2023-04-20T22:16:03.160Z,100973.31
2023-04-20T22:18:29.809Z,100963.03
2023-04-20T22:20:56.356Z,100961.88
2023-04-20T22:23:22.931Z,100982.00
2023-04-20T22:25:49.487Z,100957.53
2023-04-20T22:28:16.232Z,100949.84
2023-04-20T22:30:42.918Z,100952.50
2023-04-20T22:33:09.867Z,100942.00
2023-04-20T22:35:36.526Z,100945.47
2023-04-20T22:38:03.156Z,100927.13
2023-04-20T22:40:29.756Z,100938.56
2023-04-20T22:42:56.325Z,100923.72
2023-04-20T22:45:23.031Z,100930.03
2023-04-20T22:47:49.917Z,100924.13
2023-04-20T22:50:16.545Z,100923.31
2023-04-20T22:52:43.227Z,100909.81
2023-04-20T22:55:11.266Z,100929.22
2023-04-20T22:57:38.971Z,100915.41
2023-04-20T23:00:10.837Z,100916.84
2023-04-20T23:02:37.994Z,100914.13
2023-04-20T23:05:05.688Z,100897.69
2023-04-20T23:07:33.222Z,100913.63
2023-04-20T23:10:01.364Z,100895.41
2023-04-20T23:12:29.436Z,100899.63
2023-04-20T23:14:56.587Z,100893.03
2023-04-20T23:17:23.453Z,100890.25
2023-04-20T23:19:50.780Z,100876.31
2023-04-20T23:22:17.318Z,100878.09
2023-04-20T23:24:43.863Z,100878.34
2023-04-20T23:27:10.435Z,100868.09
2023-04-20T23:29:36.970Z,100876.66
2023-04-20T23:32:03.877Z,100852.50
2023-04-20T23:34:30.635Z,100862.19
2023-04-20T23:36:57.301Z,100849.28
2023-04-20T23:39:23.917Z,100839.50
2023-04-20T23:41:50.534Z,100847.44
2023-04-20T23:44:17.146Z,100837.25
2023-04-20T23:46:43.720Z,100832.72
2023-04-20T23:49:10.272Z,100828.63
2023-04-20T23:51:36.807Z,100824.56
2023-04-20T23:54:03.489Z,100824.41
2023-04-20T23:56:30.032Z,100820.97
2023-04-20T23:58:56.587Z,100815.72
